createdAt,value
2023-05-25T00:02:08.297Z,8.30
2023-05-25T00:04:58.733Z,8.60
2023-05-25T00:07:48.013Z,8.80
2023-05-25T00:10:37.020Z,7.80
2023-05-25T00:13:25.422Z,7.80
2023-05-25T00:16:14.085Z,7.30
2023-05-25T00:19:03.997Z,7.40
2023-05-25T00:21:52.466Z,7.60
2023-05-25T00:24:41.992Z,7.60
2023-05-25T00:27:31.572Z,8.30
2023-05-25T00:30:20.054Z,7.70
2023-05-25T00:33:10.845Z,8.90
2023-05-25T00:36:00.496Z,6.50
2023-05-25T00:38:51.235Z,8.40
2023-05-25T00:41:41.750Z,8.80
2023-05-25T00:44:32.369Z,8.50
2023-05-25T00:47:21.527Z,8.50
2023-05-25T00:50:15.262Z,8.50
2023-05-25T00:53:04.016Z,9.10
2023-05-25T00:56:23.872Z,10.20
2023-05-25T00:59:17.726Z,9.50
2023-05-25T01:02:12.115Z,8.30
2023-05-25T01:05:07.594Z,9.20
2023-05-25T01:08:02.049Z,9.20
2023-05-25T01:10:52.348Z,8.30
2023-05-25T01:13:42.050Z,8.90
2023-05-25T01:16:30.948Z,9.50
2023-05-25T01:19:19.342Z,9.80
2023-05-25T01:22:16.355Z,10.10
2023-05-25T01:25:22.962Z,10.00
2023-05-25T01:28:29.029Z,8.30
2023-05-25T01:31:22.533Z,9.50
2023-05-25T01:34:11.693Z,10.20
2023-05-25T01:37:01.665Z,10.70
2023-05-25T01:39:51.007Z,10.00
2023-05-25T01:42:39.502Z,9.40
2023-05-25T01:45:30.230Z,9.70
2023-05-25T01:48:38.004Z,9.00
2023-05-25T01:52:01.266Z,9.50
2023-05-25T01:54:57.740Z,9.50
2023-05-25T01:57:50.740Z,9.90
2023-05-25T02:00:41.731Z,10.50
2023-05-25T02:03:30.363Z,10.70
2023-05-25T02:06:18.657Z,9.20
2023-05-25T02:09:07.192Z,9.20
2023-05-25T02:11:55.385Z,9.10
2023-05-25T02:14:43.598Z,8.60
2023-05-25T02:17:32.409Z,9.40
2023-05-25T02:20:21.298Z,9.50
2023-05-25T02:23:10.941Z,9.10
2023-05-25T02:25:59.654Z,10.20
2023-05-25T02:28:47.820Z,8.60
2023-05-25T02:31:37.740Z,9.10
2023-05-25T02:34:25.609Z,10.20
2023-05-25T02:37:14.406Z,10.30
2023-05-25T02:40:04.112Z,10.80
2023-05-25T02:42:52.741Z,10.90
2023-05-25T02:45:40.909Z,10.20
2023-05-25T02:48:29.048Z,10.20
2023-05-25T02:51:17.257Z,10.60
2023-05-25T02:54:07.044Z,10.60
2023-05-25T02:56:55.386Z,8.50
2023-05-25T02:59:44.236Z,10.60
2023-05-25T03:02:33.420Z,9.70
2023-05-25T03:05:22.360Z,10.40
2023-05-25T03:08:11.349Z,9.80
2023-05-25T03:10:59.792Z,10.00
2023-05-25T03:13:47.666Z,10.80
2023-05-25T03:16:39.062Z,11.90
2023-05-25T03:19:27.316Z,10.20
2023-05-25T03:22:15.827Z,10.20
2023-05-25T03:25:04.600Z,10.80
2023-05-25T03:27:54.920Z,11.10
2023-05-25T03:30:43.158Z,10.60
2023-05-25T03:33:31.794Z,8.90
2023-05-25T03:36:20.245Z,8.90
2023-05-25T03:39:10.427Z,8.70
2023-05-25T03:41:59.607Z,9.90
2023-05-25T03:44:47.858Z,8.60
2023-05-25T03:47:37.627Z,9.50
2023-05-25T03:50:26.019Z,10.80
2023-05-25T03:53:14.569Z,10.20
2023-05-25T03:56:03.468Z,9.60
2023-05-25T03:58:53.067Z,8.20
2023-05-25T04:01:41.931Z,9.60
2023-05-25T04:04:30.436Z,9.40
2023-05-25T04:07:20.615Z,9.50
2023-05-25T04:10:09.332Z,9.00
2023-05-25T04:12:57.921Z,9.10
2023-05-25T04:15:46.709Z,9.10
2023-05-25T04:18:39.934Z,10.00
2023-05-25T04:21:31.435Z,8.90
2023-05-25T04:24:20.382Z,8.50
2023-05-25T04:27:09.286Z,8.10
2023-05-25T04:29:58.712Z,9.00
2023-05-25T04:33:08.192Z,7.60
2023-05-25T04:36:11.126Z,7.20
2023-05-25T04:39:03.064Z,7.10
2023-05-25T04:41:53.462Z,7.30
2023-05-25T04:44:42.514Z,7.50
2023-05-25T04:47:31.317Z,6.30
2023-05-25T04:50:21.891Z,6.40
2023-05-25T04:53:12.119Z,6.60
2023-05-25T04:56:01.776Z,5.80
2023-05-25T04:58:50.441Z,5.70
2023-05-25T05:01:42.509Z,6.10
2023-05-25T05:04:33.814Z,5.80
2023-05-25T05:07:23.595Z,5.40
2023-05-25T05:10:12.034Z,5.10
2023-05-25T05:13:03.850Z,5.10
2023-05-25T05:15:51.984Z,4.70
2023-05-25T05:18:40.665Z,5.00
2023-05-25T05:21:30.125Z,5.10
2023-05-25T05:24:18.624Z,5.60
2023-05-25T05:27:08.048Z,5.30
2023-05-25T05:30:04.014Z,4.70
2023-05-25T05:32:52.485Z,3.70
2023-05-25T05:35:42.624Z,4.30
2023-05-25T05:38:34.466Z,4.70
2023-05-25T05:41:23.830Z,3.70
2023-05-25T05:44:13.009Z,3.90
2023-05-25T05:47:01.818Z,3.40
2023-05-25T05:49:50.819Z,3.60
2023-05-25T05:52:39.067Z,3.90
2023-05-25T05:55:27.347Z,3.90
2023-05-25T05:58:15.116Z,3.30
2023-05-25T06:01:04.713Z,3.20
2023-05-25T06:03:54.581Z,3.30
2023-05-25T06:06:43.419Z,4.10
2023-05-25T06:09:34.860Z,3.60
2023-05-25T06:12:23.207Z,3.50
2023-05-25T06:15:12.618Z,3.30
2023-05-25T06:18:02.664Z,3.40
2023-05-25T06:20:53.121Z,3.30
2023-05-25T06:23:42.296Z,3.50
2023-05-25T06:26:30.566Z,3.20
2023-05-25T06:29:19.019Z,3.10
2023-05-25T06:32:10.969Z,3.10
2023-05-25T06:35:00.761Z,3.20
2023-05-25T06:37:50.437Z,3.40
2023-05-25T06:40:40.282Z,3.10
2023-05-25T06:43:30.222Z,3.30
2023-05-25T06:46:33.866Z,3.30
2023-05-25T06:49:23.577Z,3.80
2023-05-25T06:52:12.124Z,2.90
2023-05-25T06:55:04.131Z,3.70
2023-05-25T06:57:53.349Z,3.40
2023-05-25T07:00:41.583Z,3.30
2023-05-25T07:03:30.506Z,2.90
2023-05-25T07:06:19.308Z,3.40
2023-05-25T07:09:07.346Z,3.60
2023-05-25T07:11:56.194Z,3.00
2023-05-25T07:14:48.329Z,3.30
2023-05-25T07:17:36.818Z,3.40
2023-05-25T07:20:25.606Z,3.50
2023-05-25T07:23:14.568Z,3.10
2023-05-25T07:26:05.718Z,3.20
2023-05-25T07:29:00.339Z,3.30
2023-05-25T07:31:48.554Z,3.50
2023-05-25T07:34:37.128Z,3.00
2023-05-25T07:37:25.423Z,3.00
2023-05-25T07:40:13.591Z,3.10
2023-05-25T07:43:02.515Z,3.80
2023-05-25T07:45:52.818Z,3.90
2023-05-25T07:48:41.061Z,3.10
2023-05-25T07:51:30.269Z,3.10
2023-05-25T07:54:21.460Z,2.80
2023-05-25T07:57:11.100Z,3.10
2023-05-25T07:59:59.341Z,2.90
2023-05-25T08:02:48.147Z,3.10
2023-05-25T08:05:40.753Z,3.30
2023-05-25T08:08:28.925Z,2.50
2023-05-25T08:11:17.832Z,3.10
2023-05-25T08:14:06.536Z,3.10
2023-05-25T08:16:55.030Z,3.20
2023-05-25T08:19:43.430Z,3.20
2023-05-25T08:22:31.491Z,3.20
2023-05-25T08:25:20.362Z,3.70
2023-05-25T08:28:09.254Z,3.30
2023-05-25T08:30:58.930Z,3.20
2023-05-25T08:33:47.662Z,3.40
2023-05-25T08:36:36.521Z,2.90
2023-05-25T08:39:25.830Z,3.60
2023-05-25T08:42:16.533Z,3.00
2023-05-25T08:45:05.545Z,3.00
2023-05-25T08:47:59.743Z,2.70
2023-05-25T08:50:50.362Z,3.10
2023-05-25T08:53:41.353Z,2.70
2023-05-25T08:56:36.807Z,2.90
2023-05-25T09:00:15.815Z,3.10
2023-05-25T09:03:32.065Z,3.00
2023-05-25T09:06:21.309Z,3.10
2023-05-25T09:09:09.680Z,3.00
2023-05-25T09:11:59.235Z,3.00
2023-05-25T09:14:48.341Z,2.60
2023-05-25T09:17:38.316Z,2.50
2023-05-25T09:20:31.894Z,2.80
2023-05-25T09:23:20.635Z,3.00
2023-05-25T09:26:10.115Z,3.20
2023-05-25T09:28:58.663Z,3.40
2023-05-25T09:31:47.810Z,2.90
2023-05-25T09:34:35.861Z,2.80
2023-05-25T09:37:24.592Z,2.90
2023-05-25T09:40:15.437Z,3.20
2023-05-25T09:43:05.329Z,2.70
2023-05-25T09:45:54.802Z,2.50
2023-05-25T09:48:43.492Z,2.80
2023-05-25T09:51:33.536Z,2.80
2023-05-25T09:54:25.736Z,2.80
2023-05-25T09:57:15.236Z,3.00
2023-05-25T10:00:06.225Z,2.70
2023-05-25T10:03:00.964Z,3.10
2023-05-25T10:05:50.065Z,3.00
2023-05-25T10:08:38.744Z,2.60
2023-05-25T10:11:29.488Z,2.50
2023-05-25T10:14:29.113Z,2.80
2023-05-25T10:17:25.203Z,2.50
2023-05-25T10:20:15.790Z,2.60
2023-05-25T10:23:15.065Z,3.00
2023-05-25T10:26:06.161Z,2.90
2023-05-25T10:29:04.484Z,2.60
2023-05-25T10:31:54.532Z,3.00
2023-05-25T10:34:42.777Z,2.70
2023-05-25T10:37:32.029Z,3.00
2023-05-25T10:40:24.755Z,3.00
2023-05-25T10:43:13.523Z,2.60
2023-05-25T10:46:02.182Z,3.00
2023-05-25T10:48:52.879Z,2.90
2023-05-25T10:51:41.842Z,2.90
2023-05-25T10:54:39.702Z,3.00
2023-05-25T10:57:28.562Z,2.90
2023-05-25T11:00:19.552Z,3.10
2023-05-25T11:03:08.571Z,3.00
2023-05-25T11:05:57.004Z,2.80
2023-05-25T11:09:05.991Z,2.80
2023-05-25T11:11:56.372Z,3.20
2023-05-25T11:14:44.962Z,2.90
2023-05-25T11:17:36.182Z,2.80
2023-05-25T11:20:30.233Z,3.00
2023-05-25T11:23:26.569Z,3.20
2023-05-25T11:26:22.711Z,3.20
2023-05-25T11:29:16.397Z,3.00
2023-05-25T11:32:04.820Z,3.20
2023-05-25T11:34:54.967Z,3.30
2023-05-25T11:37:49.717Z,3.00
2023-05-25T11:40:40.272Z,2.90
2023-05-25T11:43:30.305Z,3.30
2023-05-25T11:46:19.899Z,3.00
2023-05-25T11:49:09.877Z,2.90
2023-05-25T11:51:58.621Z,3.20
2023-05-25T11:54:47.535Z,3.20
2023-05-25T11:57:36.687Z,3.20
2023-05-25T12:00:27.801Z,3.10
2023-05-25T12:03:53.011Z,3.90
2023-05-25T12:06:41.441Z,2.90
2023-05-25T12:09:30.620Z,3.10
2023-05-25T12:12:20.029Z,3.10
2023-05-25T12:15:15.677Z,2.90
2023-05-25T12:18:04.791Z,2.80
2023-05-25T12:20:54.447Z,2.80
2023-05-25T12:23:42.157Z,2.90
2023-05-25T12:26:30.406Z,2.80
2023-05-25T12:29:18.550Z,3.30
2023-05-25T12:32:07.228Z,3.00
2023-05-25T12:35:08.331Z,2.70
2023-05-25T12:38:14.224Z,2.70
2023-05-25T12:41:07.857Z,2.70
2023-05-25T12:43:59.147Z,3.00
2023-05-25T12:46:52.591Z,2.90
2023-05-25T12:49:44.605Z,3.20
2023-05-25T12:52:44.363Z,3.10
2023-05-25T12:55:36.422Z,2.60
2023-05-25T12:58:28.848Z,2.80
2023-05-25T13:01:17.020Z,2.80
2023-05-25T13:04:05.445Z,3.20
2023-05-25T13:06:55.766Z,3.00
2023-05-25T13:09:44.625Z,3.00
2023-05-25T13:12:32.766Z,3.10
2023-05-25T13:15:22.132Z,3.00
2023-05-25T13:18:12.215Z,3.10
2023-05-25T13:21:00.762Z,2.80
2023-05-25T13:23:49.050Z,3.30
2023-05-25T13:26:38.076Z,2.60
2023-05-25T13:29:27.248Z,2.90
2023-05-25T13:32:16.810Z,2.60
2023-05-25T13:35:07.270Z,3.00
2023-05-25T13:37:55.712Z,2.80
2023-05-25T13:40:44.351Z,3.00
2023-05-25T13:43:33.626Z,3.00
2023-05-25T13:46:34.268Z,3.10
2023-05-25T13:49:25.113Z,3.10
2023-05-25T13:52:14.757Z,2.80
2023-05-25T13:55:02.798Z,2.70
2023-05-25T13:57:52.347Z,2.80
2023-05-25T14:00:40.525Z,3.00
2023-05-25T14:03:29.020Z,2.90
2023-05-25T14:06:18.162Z,2.80
2023-05-25T14:09:07.805Z,2.90
2023-05-25T14:11:56.369Z,2.90
2023-05-25T14:14:45.896Z,2.80
2023-05-25T14:17:34.388Z,2.70
2023-05-25T14:20:26.142Z,2.70
2023-05-25T14:23:18.334Z,3.20
2023-05-25T14:26:07.224Z,2.90
2023-05-25T14:28:55.630Z,3.20
2023-05-25T14:31:45.054Z,3.00
2023-05-25T14:34:33.293Z,3.00
2023-05-25T14:37:21.888Z,3.10
2023-05-25T14:40:11.136Z,3.20
2023-05-25T14:42:59.047Z,3.20
2023-05-25T14:45:47.915Z,3.50
2023-05-25T14:48:39.650Z,3.00
2023-05-25T14:51:29.627Z,3.10
2023-05-25T14:54:18.642Z,3.10
2023-05-25T14:57:06.724Z,2.70
2023-05-25T14:59:57.514Z,2.80
2023-05-25T15:02:46.625Z,3.30
2023-05-25T15:05:35.126Z,2.90
2023-05-25T15:08:23.206Z,2.90
2023-05-25T15:11:12.052Z,3.20
2023-05-25T15:14:00.811Z,2.50
2023-05-25T15:16:49.735Z,2.70
2023-05-25T15:19:39.731Z,2.50
2023-05-25T15:22:28.488Z,2.60
2023-05-25T15:25:24.525Z,2.60
2023-05-25T15:28:22.571Z,2.80
2023-05-25T15:31:10.891Z,3.00
2023-05-25T15:34:01.090Z,2.90
2023-05-25T15:37:05.134Z,2.50
2023-05-25T15:39:55.232Z,2.50
2023-05-25T15:42:44.204Z,2.70
2023-05-25T15:45:34.167Z,2.20
2023-05-25T15:48:25.433Z,2.30
2023-05-25T15:51:15.391Z,2.50
2023-05-25T15:54:03.921Z,2.40
2023-05-25T15:56:52.181Z,2.40
2023-05-25T15:59:42.693Z,2.60
2023-05-25T16:02:32.387Z,2.50
2023-05-25T16:05:21.311Z,2.50
2023-05-25T16:08:15.732Z,2.30
2023-05-25T16:11:06.855Z,2.30
2023-05-25T16:13:57.080Z,2.30
2023-05-25T16:16:48.132Z,2.30
2023-05-25T16:19:37.387Z,2.20
2023-05-25T16:22:26.741Z,2.10
2023-05-25T16:25:23.448Z,2.40
2023-05-25T16:28:12.552Z,2.50
2023-05-25T16:31:01.376Z,2.30
2023-05-25T16:33:51.585Z,2.70
2023-05-25T16:36:44.418Z,2.50
2023-05-25T16:39:36.221Z,2.30
2023-05-25T16:42:26.514Z,2.00
2023-05-25T16:45:14.952Z,2.40
2023-05-25T16:48:03.427Z,2.30
2023-05-25T16:50:51.552Z,2.30
2023-05-25T16:53:39.613Z,2.10
2023-05-25T16:56:28.137Z,2.70
2023-05-25T16:59:16.372Z,2.60
2023-05-25T17:02:05.576Z,2.70
2023-05-25T17:04:53.716Z,2.30
2023-05-25T17:07:42.414Z,2.40
2023-05-25T17:10:31.113Z,2.50
2023-05-25T17:13:21.423Z,3.10
2023-05-25T17:16:09.963Z,2.50
2023-05-25T17:18:59.133Z,2.60
2023-05-25T17:21:47.996Z,2.40
2023-05-25T17:24:36.071Z,2.40
2023-05-25T17:27:25.460Z,2.60
2023-05-25T17:30:15.966Z,2.70
2023-05-25T17:33:04.251Z,2.60
2023-05-25T17:35:53.595Z,2.40
2023-05-25T17:38:43.796Z,2.80
2023-05-25T17:41:31.965Z,2.30
2023-05-25T17:44:22.098Z,2.60
2023-05-25T17:47:11.474Z,2.60
2023-05-25T17:50:00.185Z,2.70
2023-05-25T17:52:48.263Z,2.50
2023-05-25T17:55:36.981Z,2.50
2023-05-25T17:58:25.302Z,2.60
2023-05-25T18:01:15.391Z,2.70
2023-05-25T18:04:04.553Z,2.60
2023-05-25T18:06:52.801Z,2.50
2023-05-25T18:09:44.469Z,2.60
2023-05-25T18:12:33.320Z,3.00
2023-05-25T18:15:22.015Z,2.80
2023-05-25T18:18:10.541Z,2.30
2023-05-25T18:21:00.185Z,2.40
2023-05-25T18:23:49.267Z,2.40
2023-05-25T18:26:37.510Z,2.40
2023-05-25T18:29:25.949Z,2.80
2023-05-25T18:32:14.259Z,2.20
2023-05-25T18:35:02.677Z,2.70
2023-05-25T18:37:51.084Z,2.40
2023-05-25T18:40:39.299Z,2.70
2023-05-25T18:43:28.101Z,2.90
2023-05-25T18:46:17.418Z,2.60
2023-05-25T18:49:08.017Z,3.10
2023-05-25T18:51:56.453Z,3.00
2023-05-25T18:54:47.312Z,3.40
2023-05-25T18:57:35.870Z,3.10
2023-05-25T19:00:25.087Z,3.20
2023-05-25T19:03:14.248Z,3.30
2023-05-25T19:06:04.187Z,3.40
2023-05-25T19:08:52.535Z,3.40
2023-05-25T19:11:41.380Z,3.70
2023-05-25T19:14:30.821Z,3.50
2023-05-25T19:17:19.926Z,3.60
2023-05-25T19:20:09.223Z,3.70
2023-05-25T19:23:01.071Z,4.40
2023-05-25T19:25:49.828Z,3.30
2023-05-25T19:28:38.077Z,3.30
2023-05-25T19:31:26.369Z,3.40
2023-05-25T19:34:14.617Z,3.50
2023-05-25T19:37:10.875Z,3.70
2023-05-25T19:40:02.062Z,3.70
2023-05-25T19:42:50.594Z,3.60
2023-05-25T19:45:38.819Z,3.40
2023-05-25T19:48:27.458Z,3.50
2023-05-25T19:51:16.395Z,4.10
2023-05-25T19:54:05.714Z,4.00
2023-05-25T19:56:53.823Z,3.70
2023-05-25T19:59:42.700Z,4.10
2023-05-25T20:02:31.054Z,3.90
2023-05-25T20:05:20.158Z,3.60
2023-05-25T20:08:08.588Z,4.20
2023-05-25T20:10:56.768Z,4.40
2023-05-25T20:13:46.574Z,4.10
2023-05-25T20:16:35.955Z,4.50
2023-05-25T20:19:24.068Z,3.90
2023-05-25T20:22:12.083Z,4.50
2023-05-25T20:25:01.069Z,3.70
2023-05-25T20:27:49.761Z,4.30
2023-05-25T20:30:44.008Z,3.90
2023-05-25T20:33:32.208Z,4.00
2023-05-25T20:36:20.692Z,5.30
2023-05-25T20:39:08.905Z,4.70
2023-05-25T20:41:56.877Z,5.00
2023-05-25T20:44:45.860Z,4.30
2023-05-25T20:47:33.718Z,4.90
2023-05-25T20:50:22.506Z,4.70
2023-05-25T20:53:11.206Z,4.80
2023-05-25T20:55:59.298Z,4.50
2023-05-25T20:58:47.229Z,4.50
2023-05-25T21:01:35.742Z,4.50
2023-05-25T21:04:24.844Z,4.30
2023-05-25T21:07:13.146Z,4.40
2023-05-25T21:10:04.498Z,4.40
2023-05-25T21:12:52.767Z,4.20
2023-05-25T21:15:40.845Z,4.60
2023-05-25T21:18:28.810Z,5.00
2023-05-25T21:21:17.548Z,4.40
2023-05-25T21:24:06.244Z,4.10
2023-05-25T21:26:55.310Z,4.60
2023-05-25T21:29:43.726Z,4.70
2023-05-25T21:32:35.034Z,4.50
2023-05-25T21:35:23.805Z,4.70
2023-05-25T21:38:12.851Z,4.80
2023-05-25T21:41:02.537Z,4.00
2023-05-25T21:43:51.015Z,4.30
2023-05-25T21:46:39.919Z,4.90
2023-05-25T21:49:28.742Z,3.90
2023-05-25T21:52:16.657Z,4.60
2023-05-25T21:55:05.500Z,4.00
2023-05-25T21:57:53.880Z,4.40
2023-05-25T22:00:42.234Z,4.50
2023-05-25T22:03:30.449Z,3.70
2023-05-25T22:06:18.837Z,4.70
2023-05-25T22:09:07.141Z,3.50
2023-05-25T22:11:56.748Z,3.60
2023-05-25T22:14:44.886Z,5.10
2023-05-25T22:17:33.482Z,4.30
2023-05-25T22:20:21.855Z,4.20
2023-05-25T22:23:13.536Z,4.40
2023-05-25T22:26:01.543Z,4.20
2023-05-25T22:28:49.388Z,5.10
2023-05-25T22:31:38.810Z,3.80
2023-05-25T22:34:27.779Z,4.40
2023-05-25T22:37:19.623Z,4.40
2023-05-25T22:40:12.459Z,4.00
2023-05-25T22:43:00.716Z,4.50
2023-05-25T22:45:50.053Z,3.60
2023-05-25T22:48:38.255Z,3.90
2023-05-25T22:51:27.459Z,4.20
2023-05-25T22:54:15.887Z,4.40
2023-05-25T22:57:04.074Z,3.40
2023-05-25T22:59:53.280Z,4.40
2023-05-25T23:02:42.949Z,4.20
2023-05-25T23:05:31.894Z,4.30
2023-05-25T23:08:21.116Z,4.10
2023-05-25T23:11:10.604Z,4.10
2023-05-25T23:14:00.876Z,4.40
2023-05-25T23:16:49.502Z,3.30
2023-05-25T23:19:39.189Z,3.90
2023-05-25T23:22:28.379Z,4.10
2023-05-25T23:25:19.304Z,4.00
2023-05-25T23:28:07.362Z,4.70
2023-05-25T23:30:59.269Z,4.30
2023-05-25T23:33:47.191Z,3.90
2023-05-25T23:36:35.145Z,4.00
2023-05-25T23:39:23.256Z,3.40
2023-05-25T23:42:15.617Z,3.90
2023-05-25T23:45:03.950Z,3.50
2023-05-25T23:47:52.505Z,4.30
2023-05-25T23:50:41.486Z,3.40
2023-05-25T23:53:30.810Z,3.80
2023-05-25T23:56:19.099Z,3.90
2023-05-25T23:59:07.373Z,4.00
